createdAt,value
2023-02-12T00:02:03.751Z,12.88
2023-02-12T00:05:06.554Z,10.77
2023-02-12T00:08:11.206Z,11.80
2023-02-12T00:11:20.318Z,11.88
2023-02-12T00:14:22.530Z,10.15
2023-02-12T00:17:25.138Z,11.85
2023-02-12T00:20:27.387Z,11.57
2023-02-12T00:23:30.192Z,12.23
2023-02-12T00:26:32.348Z,12.13
2023-02-12T00:29:34.784Z,10.40
2023-02-12T00:32:37.343Z,11.45
2023-02-12T00:35:39.813Z,10.35
2023-02-12T00:38:42.559Z,12.80
2023-02-12T00:44:47.901Z,11.93
2023-02-12T00:47:50.395Z,11.75
2023-02-12T00:50:52.657Z,11.98
2023-02-12T00:53:55.252Z,11.38
2023-02-12T00:56:57.918Z,10.73
2023-02-12T01:00:04.408Z,12.43
2023-02-12T01:03:06.720Z,11.85
2023-02-12T01:06:09.297Z,12.60
2023-02-12T01:09:12.062Z,11.75
2023-02-12T01:12:14.785Z,13.40
2023-02-12T01:15:18.005Z,10.70
2023-02-12T01:18:20.503Z,13.48
2023-02-12T01:21:29.027Z,12.73
2023-02-12T01:24:31.538Z,11.55
2023-02-12T01:27:34.047Z,11.75
2023-02-12T01:30:36.603Z,11.02
2023-02-12T01:33:39.488Z,13.98
2023-02-12T01:36:42.069Z,12.15
2023-02-12T01:39:44.445Z,10.88
2023-02-12T01:42:47.144Z,12.20
2023-02-12T01:45:54.096Z,12.50
2023-02-12T01:48:56.822Z,11.07
2023-02-12T01:52:15.456Z,11.30
2023-02-12T01:55:19.454Z,11.05
2023-02-12T01:58:24.100Z,11.68
2023-02-12T02:01:30.861Z,12.23
2023-02-12T02:04:41.691Z,12.15
2023-02-12T02:07:46.818Z,12.45
2023-02-12T02:10:49.506Z,12.75
2023-02-12T02:14:10.961Z,12.95
2023-02-12T02:17:19.278Z,11.45
2023-02-12T02:20:50.962Z,10.63
2023-02-12T02:24:15.209Z,11.18
2023-02-12T02:27:27.846Z,12.65
2023-02-12T02:30:55.649Z,11.17
2023-02-12T02:34:04.259Z,13.88
2023-02-12T02:37:12.921Z,11.32
2023-02-12T02:40:20.346Z,11.10
2023-02-12T02:43:29.216Z,11.77
2023-02-12T02:46:48.469Z,12.35
2023-02-12T02:49:59.457Z,12.23
2023-02-12T02:53:12.034Z,10.60
2023-02-12T02:56:20.185Z,10.70
2023-02-12T02:59:29.360Z,12.55
2023-02-12T03:02:36.139Z,12.10
2023-02-12T03:05:43.560Z,10.48
2023-02-12T03:09:00.841Z,10.52
2023-02-12T03:12:21.039Z,12.10
2023-02-12T03:15:46.560Z,12.25
2023-02-12T03:19:14.154Z,10.75
2023-02-12T03:22:23.237Z,8.48
2023-02-12T03:25:47.033Z,12.07
2023-02-12T03:32:05.619Z,11.65
2023-02-12T03:35:08.235Z,11.70
2023-02-12T03:38:38.984Z,13.48
2023-02-12T03:42:02.313Z,10.60
2023-02-12T03:45:24.908Z,10.50
2023-02-12T03:48:33.707Z,10.90
2023-02-12T03:51:44.925Z,12.02
2023-02-12T03:54:47.885Z,11.45
2023-02-12T03:57:58.880Z,11.90
2023-02-12T04:01:03.275Z,11.55
2023-02-12T04:04:07.994Z,11.07
2023-02-12T04:07:10.845Z,10.07
2023-02-12T04:10:13.776Z,11.88
2023-02-12T04:13:26.312Z,12.37
2023-02-12T04:16:36.977Z,12.00
2023-02-12T04:19:51.059Z,10.02
2023-02-12T04:23:03.042Z,10.30
2023-02-12T04:26:18.353Z,10.80
2023-02-12T04:30:02.924Z,10.23
2023-02-12T04:33:08.180Z,10.02
2023-02-12T04:36:25.039Z,10.50
2023-02-12T04:39:30.095Z,8.43
2023-02-12T04:42:41.825Z,10.50
2023-02-12T04:45:44.158Z,10.30
2023-02-12T04:48:53.918Z,10.83
2023-02-12T04:51:56.223Z,10.40
2023-02-12T04:54:58.746Z,10.50
2023-02-12T04:58:01.298Z,9.30
2023-02-12T05:01:03.881Z,10.43
2023-02-12T05:04:07.380Z,10.73
2023-02-12T05:07:11.793Z,9.02
2023-02-12T05:10:14.110Z,10.38
2023-02-12T05:13:16.644Z,10.25
2023-02-12T05:16:20.304Z,9.13
2023-02-12T05:19:22.887Z,10.18
2023-02-12T05:22:25.151Z,11.02
2023-02-12T05:25:27.678Z,10.57
2023-02-12T05:28:30.943Z,8.90
2023-02-12T05:34:36.602Z,9.95
2023-02-12T05:37:39.236Z,10.07
2023-02-12T05:40:43.141Z,9.18
2023-02-12T05:43:49.481Z,11.18
2023-02-12T05:46:51.922Z,9.80
2023-02-12T05:49:54.652Z,11.83
2023-02-12T05:52:56.876Z,8.82
2023-02-12T05:56:09.494Z,10.13
2023-02-12T05:59:18.016Z,9.68
2023-02-12T06:02:20.562Z,10.73
2023-02-12T06:05:23.044Z,10.88
2023-02-12T06:08:25.199Z,12.70
2023-02-12T06:11:28.077Z,11.05
2023-02-12T06:14:32.032Z,9.75
2023-02-12T06:17:35.408Z,9.27
2023-02-12T06:20:39.995Z,10.10
2023-02-12T06:23:42.815Z,9.48
2023-02-12T06:26:46.092Z,10.43
2023-02-12T06:32:51.041Z,8.18
2023-02-12T06:35:53.981Z,10.15
2023-02-12T06:38:56.619Z,9.30
2023-02-12T06:41:59.107Z,9.00
2023-02-12T06:45:01.392Z,9.55
2023-02-12T06:48:04.080Z,9.25
2023-02-12T06:51:12.472Z,9.38
2023-02-12T06:54:16.704Z,10.15
2023-02-12T06:57:18.925Z,10.05
2023-02-12T07:00:21.898Z,8.23
2023-02-12T07:03:24.128Z,8.93
2023-02-12T07:06:28.017Z,10.90
2023-02-12T07:09:30.304Z,11.55
2023-02-12T07:12:33.767Z,10.70
2023-02-12T07:15:39.516Z,9.05
2023-02-12T07:18:43.769Z,10.00
2023-02-12T07:21:46.014Z,9.13
2023-02-12T07:24:48.685Z,10.13
2023-02-12T07:27:50.977Z,8.93
2023-02-12T07:30:54.379Z,9.45
2023-02-12T07:33:58.553Z,10.52
2023-02-12T07:37:01.012Z,9.02
2023-02-12T07:40:03.608Z,9.18
2023-02-12T07:43:06.309Z,10.30
2023-02-12T07:46:17.237Z,10.32
2023-02-12T07:49:22.363Z,9.57
2023-02-12T07:52:24.562Z,10.40
2023-02-12T07:55:27.028Z,8.18
2023-02-12T07:58:29.230Z,10.05
2023-02-12T08:01:34.204Z,8.00
2023-02-12T08:04:36.729Z,10.07
2023-02-12T08:07:39.043Z,10.00
2023-02-12T08:10:41.634Z,8.27
2023-02-12T08:13:44.542Z,8.88
2023-02-12T08:16:49.337Z,9.23
2023-02-12T08:19:51.582Z,8.02
2023-02-12T08:22:54.095Z,8.23
2023-02-12T08:26:15.298Z,9.00
2023-02-12T08:29:21.392Z,14.57
2023-02-12T08:32:23.575Z,19.17
2023-02-12T08:35:26.132Z,17.17
2023-02-12T08:38:28.544Z,16.85
2023-02-12T08:41:31.504Z,18.03
2023-02-12T08:44:33.832Z,16.02
2023-02-12T08:47:36.390Z,17.13
2023-02-12T08:50:39.028Z,18.52
2023-02-12T08:53:43.446Z,18.20
2023-02-12T08:56:45.755Z,18.80
2023-02-12T08:59:49.131Z,18.30
2023-02-12T09:02:51.463Z,18.00
2023-02-12T09:05:54.841Z,18.10
2023-02-12T09:08:57.209Z,18.15
2023-02-12T09:11:59.758Z,15.13
2023-02-12T09:15:01.994Z,15.68
2023-02-12T09:18:04.992Z,14.75
2023-02-12T09:21:10.047Z,14.67
2023-02-12T09:24:12.725Z,14.65
2023-02-12T09:27:14.954Z,12.40
2023-02-12T09:30:17.872Z,15.18
2023-02-12T09:33:20.229Z,14.07
2023-02-12T09:36:22.758Z,13.40
2023-02-12T09:39:25.931Z,13.10
2023-02-12T09:46:04.630Z,11.55
2023-02-12T09:49:39.497Z,12.35
2023-02-12T09:52:41.924Z,11.85
2023-02-12T09:55:46.078Z,11.70
2023-02-12T09:58:58.988Z,11.52
2023-02-12T10:02:01.869Z,12.32
2023-02-12T10:05:06.614Z,6.78
2023-02-12T10:08:39.637Z,10.43
2023-02-12T10:12:12.992Z,7.57
2023-02-12T10:15:33.039Z,5.53
2023-02-12T10:19:02.800Z,4.80
2023-02-12T10:22:13.795Z,4.78
2023-02-12T10:25:41.107Z,5.15
2023-02-12T10:28:44.289Z,5.60
2023-02-12T10:32:16.114Z,3.72
2023-02-12T10:35:20.338Z,3.37
2023-02-12T10:38:29.025Z,4.40
2023-02-12T10:41:36.811Z,4.47
2023-02-12T10:44:39.404Z,3.65
2023-02-12T10:47:41.711Z,4.70
2023-02-12T10:51:08.876Z,4.40
2023-02-12T10:54:37.949Z,3.72
2023-02-12T10:57:40.594Z,4.25
2023-02-12T11:00:42.964Z,4.00
2023-02-12T11:03:45.638Z,4.60
2023-02-12T11:07:08.903Z,5.35
2023-02-12T11:10:22.469Z,5.55
2023-02-12T11:13:28.519Z,5.40
2023-02-12T11:16:34.725Z,4.53
2023-02-12T11:19:37.034Z,4.57
2023-02-12T11:22:53.788Z,5.23
2023-02-12T11:26:02.929Z,4.80
2023-02-12T11:29:21.295Z,4.72
2023-02-12T11:32:23.436Z,5.53
2023-02-12T11:35:33.802Z,4.97
2023-02-12T11:38:39.026Z,4.80
2023-02-12T11:41:42.905Z,4.03
2023-02-12T11:44:54.217Z,3.78
2023-02-12T11:47:57.319Z,4.05
2023-02-12T11:51:03.825Z,3.70
2023-02-12T11:54:06.582Z,4.35
2023-02-12T11:57:36.723Z,4.45
2023-02-12T12:01:02.793Z,3.67
2023-02-12T12:04:08.519Z,4.00
2023-02-12T12:07:22.620Z,4.18
2023-02-12T12:10:36.548Z,4.10
2023-02-12T12:13:48.555Z,5.30
2023-02-12T12:17:13.391Z,3.58
2023-02-12T12:20:25.061Z,3.85
2023-02-12T12:23:35.742Z,4.62
2023-02-12T12:26:40.952Z,5.05
2023-02-12T12:30:00.925Z,4.65
2023-02-12T12:33:09.072Z,4.32
2023-02-12T12:36:14.303Z,4.32
2023-02-12T12:39:25.473Z,4.87
2023-02-12T12:42:30.921Z,4.97
2023-02-12T12:46:08.050Z,4.70
2023-02-12T12:49:24.736Z,4.10
2023-02-12T12:52:38.709Z,4.30
2023-02-12T12:56:14.987Z,4.62
2023-02-12T12:59:30.112Z,3.67
2023-02-12T13:02:51.335Z,4.10
2023-02-12T13:06:29.022Z,4.22
2023-02-12T13:09:49.637Z,7.95
2023-02-12T13:12:57.749Z,10.40
2023-02-12T13:16:16.403Z,11.50
2023-02-12T13:19:31.503Z,11.15
2023-02-12T13:22:48.483Z,11.35
2023-02-12T13:26:13.992Z,12.35
2023-02-12T13:29:16.380Z,15.20
2023-02-12T13:32:30.797Z,16.92
2023-02-12T13:35:36.773Z,18.35
2023-02-12T13:38:44.524Z,19.85
2023-02-12T13:42:00.727Z,20.35
2023-02-12T13:45:19.645Z,20.30
2023-02-12T13:48:34.490Z,20.62
2023-02-12T13:51:45.002Z,19.62
2023-02-12T13:55:19.623Z,22.95
2023-02-12T13:58:40.185Z,24.30
2023-02-12T14:01:47.504Z,24.10
2023-02-12T14:04:53.356Z,24.30
2023-02-12T14:07:58.977Z,25.25
2023-02-12T14:11:08.575Z,23.87
2023-02-12T14:14:10.952Z,21.70
2023-02-12T14:17:28.867Z,22.50
2023-02-12T14:20:40.352Z,23.30
2023-02-12T14:23:46.443Z,23.10
2023-02-12T14:26:48.910Z,21.55
2023-02-12T14:30:09.997Z,21.53
2023-02-12T14:33:26.994Z,23.40
2023-02-12T14:36:32.462Z,21.05
2023-02-12T14:39:34.769Z,23.87
2023-02-12T14:42:37.291Z,21.08
2023-02-12T14:45:39.558Z,21.30
2023-02-12T14:49:05.905Z,20.52
2023-02-12T14:52:11.773Z,19.67
2023-02-12T14:55:35.284Z,21.55
2023-02-12T14:58:37.917Z,19.25
2023-02-12T15:01:42.519Z,19.37
2023-02-12T15:04:45.748Z,17.60
2023-02-12T15:08:12.013Z,19.45
2023-02-12T15:11:21.597Z,19.75
2023-02-12T15:14:28.314Z,20.17
2023-02-12T15:17:39.391Z,19.62
2023-02-12T15:20:50.644Z,16.77
2023-02-12T15:24:11.755Z,15.38
2023-02-12T15:27:15.865Z,18.90
2023-02-12T15:30:26.381Z,16.67
2023-02-12T15:33:33.371Z,19.85
2023-02-12T15:36:36.063Z,16.40
2023-02-12T15:39:44.380Z,16.87
2023-02-12T15:42:54.326Z,14.68
2023-02-12T15:45:58.047Z,16.23
2023-02-12T15:49:00.353Z,17.17
2023-02-12T15:52:22.036Z,17.67
2023-02-12T15:55:27.986Z,20.50
2023-02-12T15:58:36.867Z,17.98
2023-02-12T16:01:40.744Z,19.60
2023-02-12T16:04:44.853Z,18.33
2023-02-12T16:10:53.138Z,18.80
2023-02-12T16:14:01.602Z,20.88
2023-02-12T16:17:04.325Z,19.15
2023-02-12T16:20:24.752Z,21.20
2023-02-12T16:23:27.419Z,19.60
2023-02-12T16:26:29.815Z,20.48
2023-02-12T16:29:35.926Z,19.55
2023-02-12T16:32:40.568Z,21.17
2023-02-12T16:35:43.107Z,20.00
2023-02-12T16:38:49.647Z,19.10
2023-02-12T16:41:56.083Z,19.98
2023-02-12T16:44:58.382Z,20.73
2023-02-12T16:48:08.767Z,19.05
2023-02-12T16:51:24.917Z,21.80
2023-02-12T16:54:32.183Z,18.77
2023-02-12T16:57:34.396Z,20.52
2023-02-12T17:00:36.944Z,20.77
2023-02-12T17:03:39.913Z,19.70
2023-02-12T17:06:43.530Z,20.48
2023-02-12T17:09:45.838Z,22.23
2023-02-12T17:12:51.487Z,22.23
2023-02-12T17:16:01.502Z,19.70
2023-02-12T17:19:04.158Z,21.25
2023-02-12T17:22:08.926Z,20.80
2023-02-12T17:25:13.528Z,23.60
2023-02-12T17:28:15.942Z,21.75
2023-02-12T17:31:20.684Z,22.33
2023-02-12T17:34:23.712Z,22.65
2023-02-12T17:37:26.267Z,22.67
2023-02-12T17:40:28.506Z,23.20
2023-02-12T17:43:31.200Z,21.27
2023-02-12T17:46:33.902Z,22.73
2023-02-12T17:49:38.635Z,23.00
2023-02-12T17:52:41.008Z,23.80
2023-02-12T17:55:43.550Z,24.83
2023-02-12T17:58:46.587Z,23.15
2023-02-12T18:01:49.045Z,23.98
2023-02-12T18:04:51.914Z,23.95
2023-02-12T18:07:54.423Z,23.05
2023-02-12T18:10:57.250Z,25.07
2023-02-12T18:14:00.269Z,24.87
2023-02-12T18:17:03.067Z,23.58
2023-02-12T18:20:06.419Z,23.10
2023-02-12T18:23:10.152Z,26.73
2023-02-12T18:26:15.855Z,24.70
2023-02-12T18:29:18.365Z,23.00
2023-02-12T18:32:20.519Z,25.80
2023-02-12T18:35:23.814Z,26.30
2023-02-12T18:38:26.108Z,24.23
2023-02-12T18:41:31.446Z,26.52
2023-02-12T18:44:33.685Z,26.10
2023-02-12T18:47:36.411Z,28.67
2023-02-12T18:50:38.789Z,30.45
2023-02-12T18:53:41.882Z,29.00
2023-02-12T18:56:46.785Z,28.97
2023-02-12T18:59:50.752Z,28.38
2023-02-12T19:06:03.794Z,26.73
2023-02-12T19:09:06.691Z,29.15
2023-02-12T19:12:09.192Z,30.50
2023-02-12T19:15:11.781Z,28.83
2023-02-12T19:18:16.285Z,28.62
2023-02-12T19:21:18.938Z,30.05
2023-02-12T19:24:21.768Z,27.40
2023-02-12T19:27:24.029Z,27.92
2023-02-12T19:30:26.551Z,30.77
2023-02-12T19:33:28.740Z,28.83
2023-02-12T19:36:33.090Z,29.08
2023-02-12T19:39:35.314Z,28.90
2023-02-12T19:42:37.783Z,30.17
2023-02-12T19:45:39.984Z,29.73
2023-02-12T19:48:43.775Z,30.60
2023-02-12T19:51:46.907Z,28.85
2023-02-12T19:54:49.444Z,30.75
2023-02-12T19:57:51.718Z,31.52
2023-02-12T20:00:54.548Z,30.42
2023-02-12T20:03:58.220Z,30.67
2023-02-12T20:07:00.476Z,28.98
2023-02-12T20:10:03.208Z,31.48
2023-02-12T20:13:05.625Z,28.27
2023-02-12T20:16:11.583Z,29.92
2023-02-12T20:19:27.430Z,32.67
2023-02-12T20:22:29.981Z,32.25
2023-02-12T20:25:32.222Z,33.17
2023-02-12T20:28:36.981Z,30.67
2023-02-12T20:31:39.393Z,34.67
2023-02-12T20:34:50.523Z,30.40
2023-02-12T20:37:53.226Z,34.53
2023-02-12T20:40:56.064Z,32.97
2023-02-12T20:44:00.843Z,32.83
2023-02-12T20:47:03.583Z,33.25
2023-02-12T20:50:06.572Z,35.97
2023-02-12T20:53:09.277Z,34.38
2023-02-12T20:56:15.228Z,35.85
2023-02-12T20:59:18.832Z,34.05
2023-02-12T21:02:21.109Z,32.75
2023-02-12T21:05:23.672Z,32.23
2023-02-12T21:08:25.972Z,32.58
2023-02-12T21:11:29.704Z,32.23
2023-02-12T21:14:31.898Z,30.60
2023-02-12T21:17:34.894Z,28.58
2023-02-12T21:20:37.074Z,29.20
2023-02-12T21:23:40.206Z,27.27
2023-02-12T21:26:42.863Z,26.23
2023-02-12T21:29:45.514Z,28.40
2023-02-12T21:32:47.801Z,26.55
2023-02-12T21:35:50.457Z,25.90
2023-02-12T21:38:53.540Z,26.52
2023-02-12T21:41:59.974Z,26.52
2023-02-12T21:45:02.257Z,25.37
2023-02-12T21:48:05.031Z,25.90
2023-02-12T21:51:15.663Z,22.98
2023-02-12T21:54:18.933Z,22.80
2023-02-12T21:57:21.862Z,23.50
2023-02-12T22:00:24.595Z,21.98
2023-02-12T22:03:27.536Z,20.67
2023-02-12T22:06:30.261Z,21.60
2023-02-12T22:09:32.945Z,22.33
2023-02-12T22:12:36.019Z,21.02
2023-02-12T22:15:38.579Z,22.35
2023-02-12T22:18:41.735Z,20.83
2023-02-12T22:21:44.551Z,20.20
2023-02-12T22:24:46.873Z,20.20
2023-02-12T22:27:49.407Z,17.17
2023-02-12T22:30:51.661Z,18.70
2023-02-12T22:33:56.523Z,17.67
2023-02-12T22:36:58.697Z,14.23
2023-02-12T22:40:01.218Z,15.77
2023-02-12T22:43:03.396Z,14.43
2023-02-12T22:46:07.894Z,17.05
2023-02-12T22:49:10.520Z,14.80
2023-02-12T22:52:13.026Z,14.65
2023-02-12T22:55:15.389Z,17.48
2023-02-12T22:58:18.301Z,14.20
2023-02-12T23:01:21.139Z,14.97
2023-02-12T23:04:23.835Z,14.50
2023-02-12T23:07:26.336Z,12.32
2023-02-12T23:10:28.929Z,11.80
2023-02-12T23:13:31.268Z,12.82
2023-02-12T23:16:33.837Z,14.70
2023-02-12T23:19:36.059Z,11.38
2023-02-12T23:22:38.627Z,12.35
2023-02-12T23:25:41.657Z,11.60
2023-02-12T23:28:44.212Z,12.75
2023-02-12T23:31:47.010Z,10.53
2023-02-12T23:34:49.634Z,12.33
2023-02-12T23:37:52.107Z,11.52
2023-02-12T23:40:54.809Z,12.77
2023-02-12T23:43:57.241Z,12.48
2023-02-12T23:47:01.805Z,10.68
2023-02-12T23:50:04.733Z,12.45
2023-02-12T23:53:07.427Z,11.12
2023-02-12T23:56:09.700Z,11.55
2023-02-12T23:59:12.243Z,12.02
